Terminal Aerodrome Forecast
Issued by NWS Chicago, IL

Home | Current Version | Previous Version | Graphics & Text | Print | Product List | Glossary On
Versions: 1 2 3 4 5 6 7 8 9 10 11 12 13 14 15 16 17 18 19 20 21 22 23 24 25
264
FTUS43 KLOT 051143 AAB
TAFRFD
TAF AMD
KRFD 051143Z 0512/0612 32007KT P6SM OVC013
     FM051530 27006KT P6SM SCT015 BKN100
     FM052300 22004KT P6SM OVC090
     FM060700 20006KT P6SM OVC060=

USA.gov is the U.S. government's official web portal to all federal, state and local government web resources and services.